Helliar — 2EPP5 — position and weather

sailwx.info

Track history (hours):
 
Tides and Currents Weather Stations Pressure Air Temp Water Temp Dewpoint Dewpoint Depression Visibility Wind Speed Wind Dir Waves Ship Positions

Helliar

Last reported at 2015-Jul-04 19:33 UTC. Time now 2015-Jul-05 06:06 UTC.
Position N 57°45' W 001°37'.

Length 122 m; draft 5.4 m.

Type: Cargo ship. MMSI: 235087119.

Date/timePositionNaut miles runAvg speedWind from/ knotsBaromVisibWave heightAir tempDewpointWater temp
2015-Jul-04 19:33N 57°45' W 001°37'1615.6
2015-Jul-04 18:33N 57°30' W 001°36'2613.0
2015-Jul-04 16:33N 57°09' W 002°05'0 0.1
2015-Jul-04 15:32N 57°09' W 002°05'0 0.0
2015-Jul-04 14:20N 57°09' W 002°05'0 0.0
2015-Jul-04 13:32N 57°09' W 002°05'0 0.0
2015-Jul-04 12:32N 57°09' W 002°05'0 0.0
2015-Jul-04 11:32N 57°09' W 002°05'0 0.0
2015-Jul-04 10:32N 57°09' W 002°05'0 0.0
2015-Jul-04 09:20N 57°09' W 002°05'0 0.0
2015-Jul-04 07:20N 57°09' W 002°05'1 0.7
2015-Jul-04 06:33N 57°08' W 002°04'2311.8
2015-Jul-04 04:33N 57°28' W 001°40'1211.8
2015-Jul-04 03:33N 57°40' W 001°40'8 0.3
2015-Jul-02 19:33N 57°48' W 001°39'1515.2
2015-Jul-02 18:33N 57°32' W 001°41'2315.5
2015-Jul-02 17:05N 57°12' W 001°58'5 5.5
2015-Jul-02 16:12N 57°09' W 002°05'0 0.0
2015-Jul-02 15:30N 57°09' W 002°05'0 0.0
2015-Jul-02 14:06N 57°09' W 002°05'0 0.0
2015-Jul-02 13:24N 57°09' W 002°05'0 0.0
2015-Jul-02 12:30N 57°09' W 002°05'0 0.0
2015-Jul-02 11:30N 57°09' W 002°05'0 0.0
2015-Jul-02 10:24N 57°09' W 002°05'0 0.0
2015-Jul-02 08:30N 57°09' W 002°05'0 0.0
2015-Jul-02 07:30N 57°09' W 002°05'0 0.5
2015-Jul-02 06:33N 57°08' W 002°04'2311.4
2015-Jul-02 04:33N 57°28' W 001°42'1312.7
2015-Jul-02 03:33N 57°40' W 001°40'3 0.1
2015-Jun-30 19:33N 57°43' W 001°38'1515.5
2015-Jun-30 18:33N 57°27' W 001°41'1915.9
2015-Jun-30 17:23N 57°12' W 001°59'5 5.4
2015-Jun-30 16:33N 57°09' W 002°05'0 0.0
2015-Jun-30 15:33N 57°09' W 002°05'0 0.0
2015-Jun-30 14:15N 57°09' W 002°05'0 0.0
2015-Jun-30 13:21N 57°09' W 002°05'0 0.0
2015-Jun-30 12:27N 57°09' W 002°05'0 0.0
2015-Jun-30 11:33N 57°09' W 002°05'0 0.0
2015-Jun-30 10:27N 57°09' W 002°05'0 0.0
2015-Jun-30 07:27N 57°09' W 002°05'0 0.0
2015-Jun-30 06:27N 57°09' W 002°05'0 0.0
2015-Jun-30 05:27N 57°09' W 002°05'2 1.7
2015-Jun-30 04:33N 57°09' W 002°03'1812.8
2015-Jun-30 03:10N 57°24' W 001°44'711.9
2015-Jun-30 02:33N 57°30' W 001°39'1212.2
2015-Jun-30 01:33N 57°42' W 001°46'1311.6
2015-Jun-30 00:29N 57°54' W 001°54'6212.4
2015-Jun-29 19:27N 58°52' W 002°35'1213.1
2015-Jun-29 18:33N 59°01' W 002°51'4 3.9
2015-Jun-29 17:33N 58°60' W 002°58'0 0.0
2015-Jun-29 16:33N 58°60' W 002°58'0 0.0
2015-Jun-29 15:33N 58°60' W 002°58'0 0.0
2015-Jun-29 14:33N 58°60' W 002°58'0 0.0
2015-Jun-29 13:33N 58°60' W 002°58'0 0.0
2015-Jun-29 12:26N 58°60' W 002°58'0 0.0
2015-Jun-29 11:32N 58°60' W 002°58'0 0.0
2015-Jun-29 10:32N 58°60' W 002°58'0 0.0
2015-Jun-29 09:32N 58°60' W 002°58'0 0.0
2015-Jun-29 08:32N 58°60' W 002°58'0 0.0
2015-Jun-29 07:32N 58°60' W 002°58'0 0.0
2015-Jun-29 06:32N 58°60' W 002°58'0 0.0
2015-Jun-29 05:32N 58°60' W 002°58'0 0.0
2015-Jun-29 04:32N 58°60' W 002°58'0 0.0
2015-Jun-29 03:32N 58°60' W 002°58'0 0.0
2015-Jun-29 02:32N 58°60' W 002°58'0 0.0
2015-Jun-29 01:32N 58°60' W 002°58'0 0.0
2015-Jun-29 00:32N 58°60' W 002°58'0 0.0
2015-Jun-28 23:32N 58°60' W 002°58'1 1.4
2015-Jun-28 22:33N 59°01' W 002°57'1211.9
2015-Jun-28 21:33N 58°55' W 002°37'8413.0
2015-Jun-28 15:03N 57°36' W 001°44'815.7
2015-Jun-28 14:33N 57°28' W 001°44'1915.1
2015-Jun-28 13:16N 57°11' W 002°01'3 4.4
2015-Jun-28 12:31N 57°09' W 002°05'0 0.2
2015-Jun-28 11:31N 57°09' W 002°05'0 0.0
2015-Jun-28 10:32N 57°09' W 002°05'0 0.0
2015-Jun-28 09:32N 57°09' W 002°05'2 2.0
2015-Jun-28 08:33N 57°09' W 002°02'1714.3
2015-Jun-28 07:22N 57°24' W 001°45'1113.2
2015-Jun-28 06:34N 57°34' W 001°43'1414.2
2015-Jun-28 05:33N 57°48' W 001°50'4214.0
2015-Jun-28 02:32N 58°28' W 002°18'1414.0
2015-Jun-28 01:33N 58°40' W 002°27'1414.1
2015-Jun-28 00:33N 58°54' W 002°37'1212.2
2015-Jun-27 23:33N 59°01' W 002°55'1 1.0
2015-Jun-27 22:33N 59°01' W 002°57'1212.5
2015-Jun-27 21:33N 59°01' W 002°33'2 0.1
2015-Jun-27 02:33N 59°02' W 002°30'1413.8
2015-Jun-27 01:33N 59°01' W 002°57'1 1.4
2015-Jun-27 00:33N 59°01' W 002°54'1313.5
2015-Jun-26 23:33N 58°52' W 002°35'7314.5
2015-Jun-26 18:34N 57°43' W 001°48'1413.6
2015-Jun-26 17:34N 57°30' W 001°44'2114.5
2015-Jun-26 16:05N 57°11' W 002°01'3 4.9
2015-Jun-26 15:27N 57°09' W 002°05'0 0.0
2015-Jun-26 14:27N 57°09' W 002°05'0 0.0
2015-Jun-26 13:21N 57°09' W 002°05'0 0.0
2015-Jun-26 11:21N 57°09' W 002°05'0 0.0
2015-Jun-26 10:27N 57°09' W 002°05'0 0.0
2015-Jun-26 09:27N 57°09' W 002°05'0 0.0
2015-Jun-26 08:27N 57°09' W 002°05'0 0.0
2015-Jun-26 07:27N 57°09' W 002°05'0 0.4
2015-Jun-26 06:33N 57°09' W 002°05'2411.9
2015-Jun-26 04:34N 57°28' W 001°39'1313.0
2015-Jun-26 03:33N 57°40' W 001°35'86 3.6
2015-Jun-25 03:33N 59°01' W 002°31'1413.7
2015-Jun-25 02:34N 59°00' W 002°58'0 0.4
2015-Jun-25 01:33N 58°60' W 002°58'8 8.2
2015-Jun-25 00:33N 58°59' W 002°43'  
Track history (hours):
 
Tides and Currents Weather Stations Pressure Air Temp Water Temp Dewpoint Dewpoint Depression Visibility Wind Speed Wind Dir Waves Ship Positions

Helliar

Last reported at 2015-Jul-04 19:33 UTC. Time now 2015-Jul-05 06:06 UTC.
Position N 57°45' W 001°37'.

Length 122 m; draft 5.4 m.

Type: Cargo ship. MMSI: 235087119.

Date/timePositionNaut miles runAvg speedWind from/ knotsBaromVisibWave heightAir tempDewpointWater temp
2015-Jul-04 19:33N 57°45' W 001°37'1615.6
2015-Jul-04 18:33N 57°30' W 001°36'2613.0
2015-Jul-04 16:33N 57°09' W 002°05'0 0.1
2015-Jul-04 15:32N 57°09' W 002°05'0 0.0
2015-Jul-04 14:20N 57°09' W 002°05'0 0.0
2015-Jul-04 13:32N 57°09' W 002°05'0 0.0
2015-Jul-04 12:32N 57°09' W 002°05'0 0.0
2015-Jul-04 11:32N 57°09' W 002°05'0 0.0
2015-Jul-04 10:32N 57°09' W 002°05'0 0.0
2015-Jul-04 09:20N 57°09' W 002°05'0 0.0
2015-Jul-04 07:20N 57°09' W 002°05'1 0.7
2015-Jul-04 06:33N 57°08' W 002°04'2311.8
2015-Jul-04 04:33N 57°28' W 001°40'1211.8
2015-Jul-04 03:33N 57°40' W 001°40'8 0.3
2015-Jul-02 19:33N 57°48' W 001°39'1515.2
2015-Jul-02 18:33N 57°32' W 001°41'2315.5
2015-Jul-02 17:05N 57°12' W 001°58'5 5.5
2015-Jul-02 16:12N 57°09' W 002°05'0 0.0
2015-Jul-02 15:30N 57°09' W 002°05'0 0.0
2015-Jul-02 14:06N 57°09' W 002°05'0 0.0
2015-Jul-02 13:24N 57°09' W 002°05'0 0.0
2015-Jul-02 12:30N 57°09' W 002°05'0 0.0
2015-Jul-02 11:30N 57°09' W 002°05'0 0.0
2015-Jul-02 10:24N 57°09' W 002°05'0 0.0
2015-Jul-02 08:30N 57°09' W 002°05'0 0.0
2015-Jul-02 07:30N 57°09' W 002°05'0 0.5
2015-Jul-02 06:33N 57°08' W 002°04'2311.4
2015-Jul-02 04:33N 57°28' W 001°42'1312.7
2015-Jul-02 03:33N 57°40' W 001°40'3 0.1
2015-Jun-30 19:33N 57°43' W 001°38'1515.5
2015-Jun-30 18:33N 57°27' W 001°41'1915.9
2015-Jun-30 17:23N 57°12' W 001°59'5 5.4
2015-Jun-30 16:33N 57°09' W 002°05'0 0.0
2015-Jun-30 15:33N 57°09' W 002°05'0 0.0
2015-Jun-30 14:15N 57°09' W 002°05'0 0.0
2015-Jun-30 13:21N 57°09' W 002°05'0 0.0
2015-Jun-30 12:27N 57°09' W 002°05'0 0.0
2015-Jun-30 11:33N 57°09' W 002°05'0 0.0
2015-Jun-30 10:27N 57°09' W 002°05'0 0.0
2015-Jun-30 07:27N 57°09' W 002°05'0 0.0
2015-Jun-30 06:27N 57°09' W 002°05'0 0.0
2015-Jun-30 05:27N 57°09' W 002°05'2 1.7
2015-Jun-30 04:33N 57°09' W 002°03'1812.8
2015-Jun-30 03:10N 57°24' W 001°44'711.9
2015-Jun-30 02:33N 57°30' W 001°39'1212.2
2015-Jun-30 01:33N 57°42' W 001°46'1311.6
2015-Jun-30 00:29N 57°54' W 001°54'6212.4
2015-Jun-29 19:27N 58°52' W 002°35'1213.1
2015-Jun-29 18:33N 59°01' W 002°51'4 3.9
2015-Jun-29 17:33N 58°60' W 002°58'0 0.0
2015-Jun-29 16:33N 58°60' W 002°58'0 0.0
2015-Jun-29 15:33N 58°60' W 002°58'0 0.0
2015-Jun-29 14:33N 58°60' W 002°58'0 0.0
2015-Jun-29 13:33N 58°60' W 002°58'0 0.0
2015-Jun-29 12:26N 58°60' W 002°58'0 0.0
2015-Jun-29 11:32N 58°60' W 002°58'0 0.0
2015-Jun-29 10:32N 58°60' W 002°58'0 0.0
2015-Jun-29 09:32N 58°60' W 002°58'0 0.0
2015-Jun-29 08:32N 58°60' W 002°58'0 0.0
2015-Jun-29 07:32N 58°60' W 002°58'0 0.0
2015-Jun-29 06:32N 58°60' W 002°58'0 0.0
2015-Jun-29 05:32N 58°60' W 002°58'0 0.0
2015-Jun-29 04:32N 58°60' W 002°58'0 0.0
2015-Jun-29 03:32N 58°60' W 002°58'0 0.0
2015-Jun-29 02:32N 58°60' W 002°58'0 0.0
2015-Jun-29 01:32N 58°60' W 002°58'0 0.0
2015-Jun-29 00:32N 58°60' W 002°58'0 0.0
2015-Jun-28 23:32N 58°60' W 002°58'1 1.4
2015-Jun-28 22:33N 59°01' W 002°57'1211.9
2015-Jun-28 21:33N 58°55' W 002°37'8413.0
2015-Jun-28 15:03N 57°36' W 001°44'815.7
2015-Jun-28 14:33N 57°28' W 001°44'1915.1
2015-Jun-28 13:16N 57°11' W 002°01'3 4.4
2015-Jun-28 12:31N 57°09' W 002°05'0 0.2
2015-Jun-28 11:31N 57°09' W 002°05'0 0.0
2015-Jun-28 10:32N 57°09' W 002°05'0 0.0
2015-Jun-28 09:32N 57°09' W 002°05'2 2.0
2015-Jun-28 08:33N 57°09' W 002°02'1714.3
2015-Jun-28 07:22N 57°24' W 001°45'1113.2
2015-Jun-28 06:34N 57°34' W 001°43'1414.2
2015-Jun-28 05:33N 57°48' W 001°50'4214.0
2015-Jun-28 02:32N 58°28' W 002°18'1414.0
2015-Jun-28 01:33N 58°40' W 002°27'1414.1
2015-Jun-28 00:33N 58°54' W 002°37'1212.2
2015-Jun-27 23:33N 59°01' W 002°55'1 1.0
2015-Jun-27 22:33N 59°01' W 002°57'1212.5
2015-Jun-27 21:33N 59°01' W 002°33'2 0.1
2015-Jun-27 02:33N 59°02' W 002°30'1413.8
2015-Jun-27 01:33N 59°01' W 002°57'1 1.4
2015-Jun-27 00:33N 59°01' W 002°54'1313.5
2015-Jun-26 23:33N 58°52' W 002°35'7314.5
2015-Jun-26 18:34N 57°43' W 001°48'1413.6
2015-Jun-26 17:34N 57°30' W 001°44'2114.5
2015-Jun-26 16:05N 57°11' W 002°01'3 4.9
2015-Jun-26 15:27N 57°09' W 002°05'0 0.0
2015-Jun-26 14:27N 57°09' W 002°05'0 0.0
2015-Jun-26 13:21N 57°09' W 002°05'0 0.0
2015-Jun-26 11:21N 57°09' W 002°05'0 0.0
2015-Jun-26 10:27N 57°09' W 002°05'0 0.0
2015-Jun-26 09:27N 57°09' W 002°05'0 0.0
2015-Jun-26 08:27N 57°09' W 002°05'0 0.0
2015-Jun-26 07:27N 57°09' W 002°05'0 0.4
2015-Jun-26 06:33N 57°09' W 002°05'2411.9
2015-Jun-26 04:34N 57°28' W 001°39'1313.0
2015-Jun-26 03:33N 57°40' W 001°35'86 3.6
2015-Jun-25 03:33N 59°01' W 002°31'1413.7
2015-Jun-25 02:34N 59°00' W 002°58'0 0.4
2015-Jun-25 01:33N 58°60' W 002°58'8 8.2
2015-Jun-25 00:33N 58°59' W 002°43'  

Dump ship's entire track history